Terminal Aerodrome Forecast
Issued by NWS Grand Forks, ND

Home | Current Version | Previous Version | Graphics & Text | Print | Product List | Glossary On
Versions: 1 2 3 4 5 6 7 8 9 10 11 12 13 14 15 16 17 18 19 20
000
FTUS43 KFGF 280500
TAFGFK
TAF
KGFK 280520Z 2806/2906 35012KT P6SM SKC
     FM280900 35012KT P6SM BKN070
     FM281600 01015KT P6SM VCSH OVC030
     FM282100 02015KT P6SM -RA OVC025=

USA.gov is the U.S. government's official web portal to all federal, state and local government web resources and services.